Owen, Kentucky
Current Conditions -  °F | °C
As of 4:53 PM on Saturday 25 Oct 2014 (Local Time) from KFFT Reporting Station
Clear Clear  
Wind Chill: 22°   Ceiling: Unl
Heat Index: 22°   Visibility: 10mi
Dew Point: 14°   Wind: 9mph
Humidity: 61%   Direction: 260°W
Pressure: 29.96"   Gusts: NA
Location:  38.5364°N, 84.5918°W
Report Text: KFFT 252053Z AUTO 26008KT 10SM CLR 22/14 A2996 RMK AO2 SLP142 T02220144 55005
Loading
Personal Weather Stations






























Interactive Weather Map
Tropical Storm Tracking
New forecast layout! Learn more

10-Day Weather Forecast

Advertisements
Track Severe Weather on mobile